createdAt,value
2022-09-23T00:01:09.472Z,0.50
2022-09-23T00:03:38.393Z,0.63
2022-09-23T00:06:08.393Z,0.50
2022-09-23T00:08:35.437Z,0.40
2022-09-23T00:11:10.535Z,0.63
2022-09-23T00:13:38.795Z,0.50
2022-09-23T00:16:08.271Z,0.30
2022-09-23T00:18:37.604Z,0.70
2022-09-23T00:21:05.695Z,0.70
2022-09-23T00:23:32.863Z,0.50
2022-09-23T00:26:01.302Z,0.50
2022-09-23T00:28:28.703Z,0.80
2022-09-23T00:30:55.407Z,0.43
2022-09-23T00:33:22.468Z,0.57
2022-09-23T00:35:49.841Z,0.50
2022-09-23T00:38:17.206Z,0.65
2022-09-23T00:40:46.120Z,0.70
2022-09-23T00:43:14.751Z,0.50
2022-09-23T00:45:46.811Z,0.50
2022-09-23T00:48:17.558Z,0.70
2022-09-23T00:50:49.228Z,0.70
2022-09-23T00:53:19.883Z,0.55
2022-09-23T00:55:50.018Z,0.82
2022-09-23T00:58:22.451Z,0.70
2022-09-23T01:00:49.360Z,0.70
2022-09-23T01:03:16.242Z,0.98
2022-09-23T01:05:47.063Z,0.40
2022-09-23T01:08:15.150Z,0.70
2022-09-23T01:11:36.003Z,0.57
2022-09-23T01:14:45.470Z,0.80
2022-09-23T01:17:51.217Z,0.80
2022-09-23T01:20:42.354Z,0.85
2022-09-23T01:23:30.195Z,0.63
2022-09-23T01:26:21.198Z,0.80
2022-09-23T01:29:15.124Z,0.63
2022-09-23T01:32:03.715Z,0.50
2022-09-23T01:34:55.591Z,0.75
2022-09-23T01:37:45.692Z,0.50
2022-09-23T01:40:25.323Z,0.85
2022-09-23T01:43:35.223Z,0.60
2022-09-23T01:46:06.754Z,0.50
2022-09-23T01:48:39.533Z,0.30
2022-09-23T01:51:19.090Z,0.73
2022-09-23T01:53:51.551Z,0.80
2022-09-23T01:56:23.173Z,0.82
2022-09-23T01:59:05.997Z,0.70
2022-09-23T02:01:47.681Z,0.47
2022-09-23T02:04:54.158Z,0.60
2022-09-23T02:07:51.382Z,0.65
2022-09-23T02:10:42.085Z,0.73
2022-09-23T02:13:24.461Z,0.47
2022-09-23T02:15:55.615Z,0.70
2022-09-23T02:18:30.234Z,0.60
2022-09-23T02:21:05.001Z,0.87
2022-09-23T02:23:40.826Z,0.80
2022-09-23T02:26:25.817Z,0.60
2022-09-23T02:29:30.477Z,0.80
2022-09-23T02:32:08.272Z,0.63
2022-09-23T02:35:04.041Z,0.85
2022-09-23T02:37:59.670Z,0.50
2022-09-23T02:40:29.446Z,0.45
2022-09-23T02:43:07.340Z,0.55
2022-09-23T02:45:34.703Z,0.65
2022-09-23T02:48:07.821Z,0.63
2022-09-23T02:50:38.601Z,1.00
2022-09-23T02:53:06.210Z,0.70
2022-09-23T02:55:33.175Z,0.30
2022-09-23T02:58:01.570Z,0.65
2022-09-23T03:00:50.073Z,0.45
2022-09-23T03:03:55.061Z,0.80
2022-09-23T03:06:28.561Z,0.73
2022-09-23T03:09:21.419Z,0.80
2022-09-23T03:11:56.888Z,0.60
2022-09-23T03:14:32.841Z,0.60
2022-09-23T03:17:08.600Z,0.68
2022-09-23T03:19:42.375Z,0.47
2022-09-23T03:22:14.109Z,0.80
2022-09-23T03:24:44.764Z,0.63
2022-09-23T03:27:20.066Z,0.60
2022-09-23T03:29:53.357Z,1.00
2022-09-23T03:32:24.662Z,0.60
2022-09-23T03:34:54.379Z,0.47
2022-09-23T03:37:35.956Z,0.82
2022-09-23T03:40:26.957Z,0.50
2022-09-23T03:42:56.118Z,0.52
2022-09-23T03:45:27.408Z,0.50
2022-09-23T03:47:54.075Z,0.60
2022-09-23T03:50:23.839Z,0.50
2022-09-23T03:52:50.851Z,0.70
2022-09-23T03:55:19.234Z,0.30
2022-09-23T03:57:48.530Z,0.60
2022-09-23T04:00:15.736Z,0.45
2022-09-23T04:02:42.934Z,0.57
2022-09-23T04:05:11.368Z,0.60
2022-09-23T04:07:38.374Z,0.70
2022-09-23T04:10:06.089Z,0.60
2022-09-23T04:12:32.752Z,0.60
2022-09-23T04:15:00.085Z,0.50
2022-09-23T04:17:26.818Z,0.50
2022-09-23T04:19:53.442Z,0.43
2022-09-23T04:22:20.320Z,0.50
2022-09-23T04:24:47.000Z,0.98
2022-09-23T04:27:13.666Z,0.40
2022-09-23T04:29:40.417Z,0.53
2022-09-23T04:32:07.345Z,0.60
2022-09-23T04:34:33.989Z,0.60
2022-09-23T04:37:00.659Z,0.90
2022-09-23T04:39:27.442Z,0.70
2022-09-23T04:41:54.096Z,0.40
2022-09-23T04:44:21.240Z,0.57
2022-09-23T04:46:48.330Z,0.40
2022-09-23T04:49:16.222Z,0.40
2022-09-23T04:51:43.594Z,0.43
2022-09-23T04:54:14.435Z,0.50
2022-09-23T04:56:41.226Z,0.57
2022-09-23T04:59:08.706Z,0.60
2022-09-23T05:01:36.571Z,0.45
2022-09-23T05:04:06.877Z,0.63
2022-09-23T05:06:34.969Z,0.68
2022-09-23T05:09:03.059Z,0.82
2022-09-23T05:11:31.573Z,0.80
2022-09-23T05:13:58.606Z,0.60
2022-09-23T05:16:26.698Z,0.47
2022-09-23T05:18:54.049Z,0.70
2022-09-23T05:21:27.646Z,0.73
2022-09-23T05:23:58.731Z,0.50
2022-09-23T05:26:27.848Z,0.70
2022-09-23T05:28:54.728Z,1.10
2022-09-23T05:31:24.016Z,0.60
2022-09-23T05:33:56.851Z,0.65
2022-09-23T05:36:24.944Z,0.70
2022-09-23T05:38:52.579Z,0.90
2022-09-23T05:41:23.048Z,0.60
2022-09-23T05:43:51.876Z,0.50
2022-09-23T05:46:24.287Z,0.43
2022-09-23T05:48:51.792Z,0.60
2022-09-23T05:51:20.966Z,0.80
2022-09-23T05:53:48.799Z,0.70
2022-09-23T05:56:20.337Z,0.80
2022-09-23T05:58:50.247Z,0.82
2022-09-23T06:01:24.767Z,0.95
2022-09-23T06:03:52.662Z,0.60
2022-09-23T06:06:37.730Z,0.50
2022-09-23T06:09:05.650Z,0.75
2022-09-23T06:11:36.817Z,0.75
2022-09-23T06:14:04.407Z,0.80
2022-09-23T06:16:33.737Z,0.55
2022-09-23T06:19:07.328Z,0.70
2022-09-23T06:21:40.303Z,0.60
2022-09-23T06:24:07.945Z,0.60
2022-09-23T06:26:37.465Z,0.70
2022-09-23T06:29:10.063Z,0.80
2022-09-23T06:31:37.024Z,0.75
2022-09-23T06:34:11.587Z,0.98
2022-09-23T06:36:44.565Z,0.57
2022-09-23T06:39:16.016Z,0.80
2022-09-23T06:41:43.982Z,0.70
2022-09-23T06:44:10.957Z,0.75
2022-09-23T06:46:37.800Z,0.70
2022-09-23T06:49:04.593Z,0.82
2022-09-23T06:51:31.272Z,0.80
2022-09-23T06:53:58.127Z,0.70
2022-09-23T06:56:24.849Z,0.70
2022-09-23T06:58:52.672Z,0.50
2022-09-23T07:01:19.764Z,0.70
2022-09-23T07:03:48.223Z,0.73
2022-09-23T07:06:15.349Z,0.68
2022-09-23T07:08:51.236Z,0.82
2022-09-23T07:11:22.262Z,0.63
2022-09-23T07:13:48.895Z,0.65
2022-09-23T07:16:15.752Z,0.90
2022-09-23T07:18:42.699Z,0.75
2022-09-23T07:21:15.579Z,0.70
2022-09-23T07:23:50.339Z,0.80
2022-09-23T07:26:22.425Z,0.90
2022-09-23T07:28:56.657Z,0.80
2022-09-23T07:31:36.311Z,0.73
2022-09-23T07:34:06.903Z,0.65
2022-09-23T07:36:33.804Z,0.70
2022-09-23T07:39:06.298Z,0.77
2022-09-23T07:41:34.050Z,0.70
2022-09-23T07:44:01.444Z,0.88
2022-09-23T07:46:34.007Z,1.03
2022-09-23T07:49:02.995Z,0.80
2022-09-23T07:51:35.981Z,0.52
2022-09-23T07:54:10.282Z,1.10
2022-09-23T07:56:37.731Z,0.90
2022-09-23T07:59:05.725Z,0.80
2022-09-23T08:01:33.740Z,0.60
2022-09-23T08:04:07.828Z,0.65
2022-09-23T08:06:34.819Z,0.60
2022-09-23T08:09:02.012Z,0.53
2022-09-23T08:11:28.740Z,0.75
2022-09-23T08:13:58.561Z,0.57
2022-09-23T08:16:25.696Z,0.60
2022-09-23T08:18:52.434Z,0.63
2022-09-23T08:21:22.619Z,0.57
2022-09-23T08:23:52.255Z,0.70
2022-09-23T08:26:22.419Z,0.43
2022-09-23T08:28:50.434Z,0.70
2022-09-23T08:31:17.244Z,0.65
2022-09-23T08:33:44.366Z,0.70
2022-09-23T08:36:11.144Z,0.65
2022-09-23T08:38:40.769Z,0.52
2022-09-23T08:41:20.717Z,0.60
2022-09-23T08:43:53.066Z,0.60
2022-09-23T08:46:27.514Z,0.80
2022-09-23T08:48:56.031Z,0.70
2022-09-23T08:51:26.462Z,0.70
2022-09-23T08:53:56.549Z,0.60
2022-09-23T08:56:24.394Z,0.70
2022-09-23T08:58:51.474Z,0.83
2022-09-23T09:01:27.775Z,0.70
2022-09-23T09:03:56.137Z,0.60
2022-09-23T09:06:52.218Z,0.70
2022-09-23T09:09:20.474Z,0.90
2022-09-23T09:11:51.972Z,0.70
2022-09-23T09:14:49.961Z,0.55
2022-09-23T09:17:46.881Z,0.93
2022-09-23T09:20:42.648Z,0.60
2022-09-23T09:23:21.589Z,0.60
2022-09-23T09:25:56.430Z,0.98
2022-09-23T09:28:48.395Z,0.80
2022-09-23T09:31:36.061Z,0.60
2022-09-23T09:34:14.065Z,0.80
2022-09-23T09:37:07.291Z,0.68
2022-09-23T09:39:37.124Z,0.70
2022-09-23T09:42:06.449Z,0.85
2022-09-23T09:47:47.296Z,0.60
2022-09-23T09:50:38.502Z,0.90
2022-09-23T09:53:23.825Z,0.90
2022-09-23T09:56:04.339Z,0.73
2022-09-23T09:59:01.479Z,0.98
2022-09-23T10:01:34.047Z,0.80
2022-09-23T10:04:24.829Z,0.60
2022-09-23T10:07:05.700Z,0.80
2022-09-23T10:09:37.499Z,0.75
2022-09-23T10:12:15.678Z,0.75
2022-09-23T10:14:43.099Z,0.60
2022-09-23T10:17:20.617Z,0.85
2022-09-23T10:20:00.206Z,0.80
2022-09-23T10:22:32.941Z,0.70
2022-09-23T10:25:08.367Z,0.80
2022-09-23T10:27:36.736Z,0.80
2022-09-23T10:30:22.742Z,0.80
2022-09-23T10:32:51.396Z,0.75
2022-09-23T10:35:24.360Z,0.80
2022-09-23T10:41:01.684Z,1.00
2022-09-23T10:44:22.370Z,0.70
2022-09-23T10:47:00.903Z,0.75
2022-09-23T10:49:40.455Z,0.75
2022-09-23T10:52:25.646Z,0.75
2022-09-23T10:55:03.514Z,0.68
2022-09-23T10:57:47.959Z,0.63
2022-09-23T11:00:51.762Z,0.80
2022-09-23T11:03:50.890Z,0.90
2022-09-23T11:06:25.140Z,0.70
2022-09-23T11:08:55.583Z,0.70
2022-09-23T11:12:05.763Z,0.60
2022-09-23T11:14:57.183Z,0.80
2022-09-23T11:17:50.542Z,0.67
2022-09-23T11:20:41.342Z,0.60
2022-09-23T11:23:13.586Z,0.80
2022-09-23T11:25:54.293Z,0.63
2022-09-23T11:28:55.046Z,0.55
2022-09-23T11:31:36.368Z,1.67
2022-09-23T11:34:11.567Z,0.73
2022-09-23T11:36:43.425Z,0.70
2022-09-23T11:39:36.546Z,0.63
2022-09-23T11:42:06.591Z,0.60
2022-09-23T11:44:39.553Z,0.93
2022-09-23T11:47:39.941Z,0.70
2022-09-23T11:50:29.565Z,1.33
2022-09-23T11:53:28.853Z,0.85
2022-09-23T11:56:12.355Z,0.70
2022-09-23T11:58:59.861Z,0.75
2022-09-23T12:01:37.652Z,0.50
2022-09-23T12:04:52.542Z,0.77
2022-09-23T12:07:39.500Z,1.00
2022-09-23T12:10:08.455Z,0.60
2022-09-23T12:13:04.977Z,0.70
2022-09-23T12:15:55.307Z,0.85
2022-09-23T12:19:04.509Z,0.77
2022-09-23T12:21:59.975Z,1.00
2022-09-23T12:24:54.119Z,0.80
2022-09-23T12:27:46.146Z,0.85
2022-09-23T12:30:17.395Z,0.75
2022-09-23T12:32:47.153Z,0.70
2022-09-23T12:35:44.228Z,0.73
2022-09-23T12:38:33.638Z,0.70
2022-09-23T12:41:00.865Z,0.60
2022-09-23T12:43:32.964Z,0.70
2022-09-23T12:46:25.632Z,0.75
2022-09-23T12:49:00.591Z,0.60
2022-09-23T12:51:37.269Z,0.80
2022-09-23T12:54:03.897Z,0.60
2022-09-23T12:56:36.273Z,0.63
2022-09-23T12:59:29.457Z,0.73
2022-09-23T13:01:57.377Z,0.80
2022-09-23T13:05:01.898Z,0.70
2022-09-23T13:07:34.152Z,0.73
2022-09-23T13:10:07.436Z,0.93
2022-09-23T13:12:39.404Z,0.65
2022-09-23T13:15:28.621Z,1.05
2022-09-23T13:18:21.323Z,0.80
2022-09-23T13:20:52.867Z,0.70
2022-09-23T13:23:22.394Z,0.80
2022-09-23T13:26:01.764Z,0.75
2022-09-23T13:28:41.647Z,1.00
2022-09-23T13:31:15.999Z,0.88
2022-09-23T13:33:53.019Z,0.70
2022-09-23T13:36:21.094Z,0.90
2022-09-23T13:38:48.302Z,0.80
2022-09-23T13:41:20.688Z,0.77
2022-09-23T13:43:53.951Z,0.90
2022-09-23T13:46:24.605Z,0.70
2022-09-23T13:48:54.607Z,1.00
2022-09-23T13:51:32.957Z,0.70
2022-09-23T13:54:01.496Z,0.77
2022-09-23T13:56:35.999Z,0.70
2022-09-23T13:59:24.927Z,0.90
2022-09-23T14:02:05.190Z,0.82
2022-09-23T14:04:31.907Z,0.95
2022-09-23T14:06:58.685Z,0.70
2022-09-23T14:09:28.526Z,0.97
2022-09-23T14:11:58.966Z,0.95
2022-09-23T14:14:27.949Z,0.80
2022-09-23T14:16:55.970Z,0.90
2022-09-23T14:19:27.345Z,0.80
2022-09-23T14:21:58.338Z,0.80
2022-09-23T14:24:34.302Z,0.90
2022-09-23T14:27:06.721Z,0.60
2022-09-23T14:29:39.521Z,0.60
2022-09-23T14:32:22.593Z,0.50
2022-09-23T14:35:01.317Z,0.70
2022-09-23T14:38:06.766Z,0.82
2022-09-23T14:40:49.004Z,0.73
2022-09-23T14:43:29.000Z,0.50
2022-09-23T14:45:59.559Z,0.63
2022-09-23T14:48:34.978Z,0.60
2022-09-23T14:51:04.267Z,0.70
2022-09-23T14:53:43.585Z,0.70
2022-09-23T14:56:22.160Z,0.80
2022-09-23T14:59:02.249Z,1.00
2022-09-23T15:01:32.364Z,0.80
2022-09-23T15:04:12.525Z,0.57
2022-09-23T15:06:44.098Z,0.80
2022-09-23T15:09:42.176Z,0.80
2022-09-23T15:12:20.568Z,0.70
2022-09-23T15:14:53.769Z,0.70
2022-09-23T15:17:23.575Z,0.60
2022-09-23T15:20:16.340Z,0.90
2022-09-23T15:22:45.782Z,0.60
2022-09-23T15:25:35.549Z,0.73
2022-09-23T15:28:17.646Z,0.90
2022-09-23T15:30:45.272Z,0.50
2022-09-23T15:33:17.762Z,0.73
2022-09-23T15:35:49.218Z,0.60
2022-09-23T15:38:17.560Z,0.53
2022-09-23T15:40:44.369Z,0.50
2022-09-23T15:43:23.224Z,0.50
2022-09-23T15:45:53.290Z,0.60
2022-09-23T15:48:24.124Z,0.60
2022-09-23T15:50:52.027Z,0.93
2022-09-23T15:53:21.922Z,0.80
2022-09-23T15:55:52.077Z,0.50
2022-09-23T15:58:20.453Z,0.68
2022-09-23T16:00:55.953Z,0.57
2022-09-23T16:03:28.634Z,0.70
2022-09-23T16:05:59.954Z,1.00
2022-09-23T16:08:39.352Z,0.70
2022-09-23T16:11:06.828Z,0.90
2022-09-23T16:13:33.468Z,0.80
2022-09-23T16:16:00.170Z,0.70
2022-09-23T16:18:26.941Z,0.88
2022-09-23T16:20:54.693Z,0.68
2022-09-23T16:23:39.712Z,0.65
2022-09-23T16:26:43.944Z,0.73
2022-09-23T16:29:11.531Z,0.75
2022-09-23T16:31:38.899Z,0.75
2022-09-23T16:34:05.694Z,0.70
2022-09-23T16:36:41.750Z,0.70
2022-09-23T16:39:12.515Z,0.90
2022-09-23T16:41:39.614Z,0.60
2022-09-23T16:44:08.216Z,0.80
2022-09-23T16:46:35.436Z,0.70
2022-09-23T16:49:02.855Z,0.73
2022-09-23T16:51:37.926Z,0.40
2022-09-23T16:54:12.208Z,0.90
2022-09-23T16:56:45.047Z,0.75
2022-09-23T16:59:13.004Z,0.90
2022-09-23T17:02:01.303Z,0.80
2022-09-23T17:04:28.037Z,0.90
2022-09-23T17:06:55.898Z,0.90
2022-09-23T17:09:25.581Z,0.85
2022-09-23T17:12:11.289Z,0.57
2022-09-23T17:14:37.923Z,0.70
2022-09-23T17:17:04.719Z,0.65
2022-09-23T17:19:31.677Z,0.73
2022-09-23T17:22:00.383Z,0.93
2022-09-23T17:24:27.035Z,0.70
2022-09-23T17:26:53.773Z,1.00
2022-09-23T17:29:20.611Z,2.63
2022-09-23T17:31:47.371Z,1.30
2022-09-23T17:34:14.087Z,0.80
2022-09-23T17:36:41.042Z,0.80
2022-09-23T17:39:07.843Z,0.75
2022-09-23T17:41:34.637Z,1.00
2022-09-23T17:44:01.606Z,1.42
2022-09-23T17:46:30.099Z,1.20
2022-09-23T17:48:57.183Z,2.50
2022-09-23T17:51:25.379Z,1.70
2022-09-23T17:53:52.535Z,1.30
2022-09-23T17:56:21.637Z,1.25
2022-09-23T17:58:49.697Z,1.23
2022-09-23T18:01:19.477Z,1.50
2022-09-23T18:03:47.264Z,2.13
2022-09-23T18:06:21.474Z,1.55
2022-09-23T18:08:49.714Z,1.10
2022-09-23T18:11:23.333Z,1.38
2022-09-23T18:14:01.363Z,1.30
2022-09-23T18:16:30.589Z,1.30
2022-09-23T18:19:00.320Z,1.25
2022-09-23T18:21:32.529Z,1.10
2022-09-23T18:24:21.681Z,1.40
2022-09-23T18:26:49.610Z,1.30
2022-09-23T18:29:16.758Z,1.40
2022-09-23T18:31:45.087Z,0.88
2022-09-23T18:34:14.163Z,1.33
2022-09-23T18:36:41.046Z,1.35
2022-09-23T18:39:07.880Z,0.93
2022-09-23T18:41:35.150Z,0.73
2022-09-23T18:44:02.265Z,1.10
2022-09-23T18:46:32.250Z,1.30
2022-09-23T18:49:17.956Z,0.80
2022-09-23T18:51:56.526Z,1.23
2022-09-23T18:54:28.013Z,0.80
2022-09-23T18:56:59.161Z,1.10
2022-09-23T18:59:28.935Z,0.90
2022-09-23T19:01:56.750Z,1.15
2022-09-23T19:04:27.242Z,1.10
2022-09-23T19:06:57.912Z,1.17
2022-09-23T19:09:24.913Z,1.10
2022-09-23T19:11:52.645Z,1.50
2022-09-23T19:14:19.578Z,1.30
2022-09-23T19:16:48.882Z,3.03
2022-09-23T19:19:15.631Z,2.28
2022-09-23T19:21:42.354Z,2.08
2022-09-23T19:24:14.277Z,1.17
2022-09-23T19:26:41.326Z,1.67
2022-09-23T19:29:13.117Z,2.00
2022-09-23T19:31:41.145Z,1.75
2022-09-23T19:34:23.747Z,0.95
2022-09-23T19:36:50.613Z,0.98
2022-09-23T19:39:28.532Z,0.93
2022-09-23T19:41:56.099Z,1.33
2022-09-23T19:44:25.061Z,0.98
2022-09-23T19:46:56.359Z,1.38
2022-09-23T19:49:28.159Z,1.63
2022-09-23T19:51:57.909Z,1.30
2022-09-23T19:54:27.146Z,1.48
2022-09-23T19:56:54.359Z,1.60
2022-09-23T19:59:28.541Z,1.58
2022-09-23T20:01:55.316Z,1.52
2022-09-23T20:04:21.995Z,2.10
2022-09-23T20:06:51.617Z,1.65
2022-09-23T20:09:21.215Z,2.05
2022-09-23T20:11:47.944Z,1.50
2022-09-23T20:14:15.131Z,1.77
2022-09-23T20:16:41.893Z,1.67
2022-09-23T20:19:12.396Z,1.40
2022-09-23T20:21:39.138Z,2.05
2022-09-23T20:24:06.930Z,1.33
2022-09-23T20:26:52.737Z,1.17
2022-09-23T20:29:19.381Z,1.38
2022-09-23T20:31:48.282Z,1.30
2022-09-23T20:34:15.126Z,1.35
2022-09-23T20:36:42.445Z,2.33
2022-09-23T20:39:12.356Z,1.60
2022-09-23T20:41:40.072Z,1.38
2022-09-23T20:44:12.418Z,1.30
2022-09-23T20:46:48.314Z,0.95
2022-09-23T20:49:19.223Z,1.23
2022-09-23T20:51:47.961Z,0.98
2022-09-23T20:54:15.911Z,1.02
2022-09-23T20:56:42.561Z,0.70
2022-09-23T20:59:13.364Z,0.88
2022-09-23T21:01:40.767Z,0.98
2022-09-23T21:04:09.615Z,1.27
2022-09-23T21:06:37.311Z,1.00
2022-09-23T21:09:07.559Z,0.98
2022-09-23T21:11:34.281Z,1.20
2022-09-23T21:14:01.499Z,1.10
2022-09-23T21:16:28.788Z,0.90
2022-09-23T21:18:58.517Z,0.80
2022-09-23T21:21:28.023Z,0.85
2022-09-23T21:23:56.486Z,0.90
2022-09-23T21:26:31.022Z,1.23
2022-09-23T21:29:00.980Z,1.00
2022-09-23T21:31:35.916Z,1.20
2022-09-23T21:34:06.779Z,0.90
2022-09-23T21:36:41.412Z,0.63
2022-09-23T21:39:10.302Z,0.70
2022-09-23T21:41:37.465Z,0.60
2022-09-23T21:44:04.764Z,1.10
2022-09-23T21:46:33.754Z,1.13
2022-09-23T21:49:03.477Z,1.17
2022-09-23T21:51:37.551Z,1.45
2022-09-23T21:54:05.592Z,1.10
2022-09-23T21:56:35.186Z,1.20
2022-09-23T21:59:02.649Z,3.80
2022-09-23T22:01:37.257Z,3.45
2022-09-23T22:04:13.610Z,2.97
2022-09-23T22:06:42.759Z,1.65
2022-09-23T22:09:14.178Z,1.85
2022-09-23T22:12:00.549Z,1.67
2022-09-23T22:14:27.773Z,1.35
2022-09-23T22:16:57.576Z,1.17
2022-09-23T22:19:26.801Z,1.42
2022-09-23T22:21:55.774Z,1.10
2022-09-23T22:24:25.455Z,1.25
2022-09-23T22:26:52.261Z,1.55
2022-09-23T22:29:37.899Z,1.50
2022-09-23T22:32:28.363Z,1.42
2022-09-23T22:34:55.499Z,1.57
2022-09-23T22:37:27.190Z,1.50
2022-09-23T22:39:54.322Z,2.17
2022-09-23T22:42:22.180Z,2.05
2022-09-23T22:44:49.339Z,2.08
2022-09-23T22:47:17.960Z,1.70
2022-09-23T22:49:46.162Z,1.25
2022-09-23T22:52:14.951Z,1.80
2022-09-23T22:54:41.847Z,1.60
2022-09-23T22:57:09.094Z,1.42
2022-09-23T22:59:38.907Z,1.00
2022-09-23T23:02:08.341Z,1.13
2022-09-23T23:04:37.106Z,1.40
2022-09-23T23:07:04.293Z,1.40
2022-09-23T23:09:31.286Z,1.35
2022-09-23T23:11:57.938Z,1.20
2022-09-23T23:14:26.316Z,1.08
2022-09-23T23:16:53.534Z,1.15
2022-09-23T23:19:20.289Z,1.33
2022-09-23T23:21:50.895Z,0.98
2022-09-23T23:24:21.341Z,1.05
2022-09-23T23:26:48.876Z,0.93
2022-09-23T23:29:17.645Z,1.08
2022-09-23T23:31:52.298Z,1.10
2022-09-23T23:34:22.605Z,1.20
2022-09-23T23:36:56.461Z,0.85
2022-09-23T23:39:24.809Z,1.00
2022-09-23T23:41:56.038Z,1.08
2022-09-23T23:44:24.570Z,0.95
2022-09-23T23:46:51.753Z,1.20
2022-09-23T23:49:18.581Z,1.20
2022-09-23T23:51:47.592Z,0.90
2022-09-23T23:54:15.180Z,1.38
2022-09-23T23:56:45.110Z,1.00
2022-09-23T23:59:14.927Z,1.17
